sensor_id;sensor_type;location;lat;lon;timestamp;pressure;altitude;pressure_sealevel;temperature;humidity
23899;BME280;20544;50.018;20.010;2023-02-26T00:00:37;97489.08;;;1.75;100.00
23899;BME280;20544;50.018;20.010;2023-02-26T00:03:57;97505.27;;;1.79;100.00
23899;BME280;20544;50.018;20.010;2023-02-26T00:07:14;97519.64;;;1.75;100.00
23899;BME280;20544;50.018;20.010;2023-02-26T00:13:48;97525.03;;;1.73;100.00
23899;BME280;20544;50.018;20.010;2023-02-26T00:20:59;97517.88;;;1.84;100.00
23899;BME280;20544;50.018;20.010;2023-02-26T00:27:31;97536.14;;;1.75;100.00
23899;BME280;20544;50.018;20.010;2023-02-26T00:30:49;97533.52;;;1.75;100.00
23899;BME280;20544;50.018;20.010;2023-02-26T00:34:09;97540.72;;;1.73;100.00
23899;BME280;20544;50.018;20.010;2023-02-26T00:37:42;97549.42;;;1.82;100.00
23899;BME280;20544;50.018;20.010;2023-02-26T00:41:06;97564.27;;;1.82;100.00
23899;BME280;20544;50.018;20.010;2023-02-26T00:44:24;97576.27;;;1.92;100.00
23899;BME280;20544;50.018;20.010;2023-02-26T00:47:44;97577.08;;;1.93;100.00
23899;BME280;20544;50.018;20.010;2023-02-26T00:51:10;97576.56;;;1.89;100.00
23899;BME280;20544;50.018;20.010;2023-02-26T00:54:28;97581.15;;;1.87;100.00
23899;BME280;20544;50.018;20.010;2023-02-26T00:57:44;97588.13;;;1.78;100.00
23899;BME280;20544;50.018;20.010;2023-02-26T01:01:02;97587.16;;;1.80;100.00
23899;BME280;20544;50.018;20.010;2023-02-26T01:04:20;97594.52;;;1.84;100.00
23899;BME280;20544;50.018;20.010;2023-02-26T01:07:43;97584.58;;;1.88;100.00
23899;BME280;20544;50.018;20.010;2023-02-26T01:11:03;97596.14;;;1.77;100.00
23899;BME280;20544;50.018;20.010;2023-02-26T01:14:21;97594.84;;;1.81;100.00
23899;BME280;20544;50.018;20.010;2023-02-26T01:17:42;97583.25;;;1.84;100.00
23899;BME280;20544;50.018;20.010;2023-02-26T01:21:02;97575.08;;;1.87;100.00
23899;BME280;20544;50.018;20.010;2023-02-26T01:24:17;97576.56;;;1.89;100.00
23899;BME280;20544;50.018;20.010;2023-02-26T01:27:35;97572.84;;;1.92;100.00
23899;BME280;20544;50.018;20.010;2023-02-26T01:30:52;97564.84;;;1.93;100.00
23899;BME280;20544;50.018;20.010;2023-02-26T01:34:15;97558.77;;;1.93;100.00
23899;BME280;20544;50.018;20.010;2023-02-26T01:37:40;97565.63;;;1.86;100.00
23899;BME280;20544;50.018;20.010;2023-02-26T01:41:15;97561.77;;;1.72;100.00
23899;BME280;20544;50.018;20.010;2023-02-26T01:44:40;97572.09;;;1.73;100.00
23899;BME280;20544;50.018;20.010;2023-02-26T01:48:04;97571.88;;;1.67;100.00
23899;BME280;20544;50.018;20.010;2023-02-26T01:51:46;97591.30;;;1.64;100.00
23899;BME280;20544;50.018;20.010;2023-02-26T01:58:21;97599.76;;;1.58;100.00
23899;BME280;20544;50.018;20.010;2023-02-26T02:01:40;97604.70;;;1.61;100.00
23899;BME280;20544;50.018;20.010;2023-02-26T02:04:56;97614.80;;;1.56;100.00
23899;BME280;20544;50.018;20.010;2023-02-26T02:08:16;97627.86;;;1.56;100.00
23899;BME280;20544;50.018;20.010;2023-02-26T02:12:49;97635.70;;;1.56;100.00
23899;BME280;20544;50.018;20.010;2023-02-26T02:16:14;97631.96;;;1.58;100.00
23899;BME280;20544;50.018;20.010;2023-02-26T02:27:01;97629.34;;;1.58;100.00
23899;BME280;20544;50.018;20.010;2023-02-26T02:30:30;97642.17;;;1.70;100.00
23899;BME280;20544;50.018;20.010;2023-02-26T02:33:52;97656.30;;;1.59;100.00
23899;BME280;20544;50.018;20.010;2023-02-26T02:37:13;97661.52;;;1.59;100.00
23899;BME280;20544;50.018;20.010;2023-02-26T02:43:49;97669.12;;;1.70;100.00
23899;BME280;20544;50.018;20.010;2023-02-26T02:47:07;97669.95;;;1.71;100.00
23899;BME280;20544;50.018;20.010;2023-02-26T02:50:27;97677.56;;;1.64;100.00
23899;BME280;20544;50.018;20.010;2023-02-26T02:53:48;97691.97;;;1.68;100.00
23899;BME280;20544;50.018;20.010;2023-02-26T02:57:10;97686.29;;;1.73;100.00
23899;BME280;20544;50.018;20.010;2023-02-26T03:00:29;97680.91;;;1.74;100.00
23899;BME280;20544;50.018;20.010;2023-02-26T03:03:46;97670.09;;;1.69;100.00
23899;BME280;20544;50.018;20.010;2023-02-26T03:07:03;97667.98;;;1.73;100.00
23899;BME280;20544;50.018;20.010;2023-02-26T03:10:20;97663.08;;;1.70;100.00
23899;BME280;20544;50.018;20.010;2023-02-26T03:13:38;97657.38;;;1.74;100.00
23899;BME280;20544;50.018;20.010;2023-02-26T03:17:03;97657.02;;;1.69;100.00
23899;BME280;20544;50.018;20.010;2023-02-26T03:20:29;97657.69;;;1.71;100.00
23899;BME280;20544;50.018;20.010;2023-02-26T03:23:53;97672.05;;;1.67;100.00
23899;BME280;20544;50.018;20.010;2023-02-26T03:27:15;97690.03;;;1.70;100.00
23899;BME280;20544;50.018;20.010;2023-02-26T03:30:37;97716.78;;;1.64;100.00
23899;BME280;20544;50.018;20.010;2023-02-26T03:33:58;97724.09;;;1.60;100.00
23899;BME280;20544;50.018;20.010;2023-02-26T03:37:18;97734.11;;;1.65;100.00
23899;BME280;20544;50.018;20.010;2023-02-26T03:40:39;97741.22;;;1.55;100.00
23899;BME280;20544;50.018;20.010;2023-02-26T03:44:00;97743.67;;;1.56;100.00
23899;BME280;20544;50.018;20.010;2023-02-26T03:47:20;97753.69;;;1.61;100.00
23899;BME280;20544;50.018;20.010;2023-02-26T03:50:41;97747.34;;;1.64;100.00
23899;BME280;20544;50.018;20.010;2023-02-26T03:54:07;97750.92;;;1.63;100.00
23899;BME280;20544;50.018;20.010;2023-02-26T03:57:28;97751.20;;;1.59;100.00
23899;BME280;20544;50.018;20.010;2023-02-26T04:00:56;97732.53;;;1.54;100.00
23899;BME280;20544;50.018;20.010;2023-02-26T04:04:16;97735.63;;;1.50;100.00
23899;BME280;20544;50.018;20.010;2023-02-26T04:07:35;97754.56;;;1.52;100.00
23899;BME280;20544;50.018;20.010;2023-02-26T04:14:08;97785.77;;;1.35;100.00
23899;BME280;20544;50.018;20.010;2023-02-26T04:17:24;97800.48;;;1.36;100.00
23899;BME280;20544;50.018;20.010;2023-02-26T04:20:41;97802.26;;;1.36;100.00
23899;BME280;20544;50.018;20.010;2023-02-26T04:29:27;97825.98;;;1.24;100.00
23899;BME280;20544;50.018;20.010;2023-02-26T04:32:43;97829.44;;;1.25;100.00
23899;BME280;20544;50.018;20.010;2023-02-26T04:35:59;97840.69;;;1.25;100.00
23899;BME280;20544;50.018;20.010;2023-02-26T04:39:16;97843.84;;;1.29;100.00
23899;BME280;20544;50.018;20.010;2023-02-26T04:42:33;97834.88;;;1.32;100.00
23899;BME280;20544;50.018;20.010;2023-02-26T04:45:50;97847.41;;;1.28;100.00
23899;BME280;20544;50.018;20.010;2023-02-26T04:49:08;97850.76;;;1.20;100.00
23899;BME280;20544;50.018;20.010;2023-02-26T04:52:25;97844.42;;;1.23;100.00
23899;BME280;20544;50.018;20.010;2023-02-26T04:55:41;97847.99;;;1.22;100.00
23899;BME280;20544;50.018;20.010;2023-02-26T04:59:00;97854.18;;;1.21;100.00
23899;BME280;20544;50.018;20.010;2023-02-26T05:02:16;97855.83;;;1.22;100.00
23899;BME280;20544;50.018;20.010;2023-02-26T05:05:32;97854.72;;;1.24;100.00
23899;BME280;20544;50.018;20.010;2023-02-26T05:08:49;97866.20;;;1.13;100.00
23899;BME280;20544;50.018;20.010;2023-02-26T05:15:21;97865.08;;;1.16;100.00
23899;BME280;20544;50.018;20.010;2023-02-26T05:18:38;97871.35;;;1.23;100.00
23899;BME280;20544;50.018;20.010;2023-02-26T05:21:54;97876.00;;;1.29;100.00
23899;BME280;20544;50.018;20.010;2023-02-26T05:25:11;97871.04;;;1.36;100.00
23899;BME280;20544;50.018;20.010;2023-02-26T05:28:28;97881.49;;;1.36;100.00
23899;BME280;20544;50.018;20.010;2023-02-26T05:31:46;97891.56;;;1.31;100.00
23899;BME280;20544;50.018;20.010;2023-02-26T05:35:02;97883.33;;;1.26;100.00
23899;BME280;20544;50.018;20.010;2023-02-26T05:38:20;97879.19;;;1.23;100.00
23899;BME280;20544;50.018;20.010;2023-02-26T05:41:36;97889.25;;;1.18;100.00
23899;BME280;20544;50.018;20.010;2023-02-26T05:44:53;97902.89;;;1.12;100.00
23899;BME280;20544;50.018;20.010;2023-02-26T05:48:10;97912.70;;;1.00;100.00
23899;BME280;20544;50.018;20.010;2023-02-26T05:51:26;97932.64;;;1.01;100.00
23899;BME280;20544;50.018;20.010;2023-02-26T05:54:42;97952.02;;;0.99;100.00
23899;BME280;20544;50.018;20.010;2023-02-26T05:58:01;97961.23;;;0.83;100.00
23899;BME280;20544;50.018;20.010;2023-02-26T06:01:18;97962.47;;;0.99;100.00
23899;BME280;20544;50.018;20.010;2023-02-26T06:04:34;97972.38;;;0.95;100.00
23899;BME280;20544;50.018;20.010;2023-02-26T06:07:51;97973.89;;;0.88;100.00
23899;BME280;20544;50.018;20.010;2023-02-26T06:11:08;97984.47;;;0.96;100.00
23899;BME280;20544;50.018;20.010;2023-02-26T06:14:24;97977.45;;;0.87;100.00
23899;BME280;20544;50.018;20.010;2023-02-26T06:17:40;97996.98;;;0.73;100.00
23899;BME280;20544;50.018;20.010;2023-02-26T06:20:58;98004.67;;;0.84;100.00
23899;BME280;20544;50.018;20.010;2023-02-26T06:24:17;98004.52;;;0.95;100.00
23899;BME280;20544;50.018;20.010;2023-02-26T06:29:09;98020.59;;;1.01;100.00
23899;BME280;20544;50.018;20.010;2023-02-26T06:32:26;98025.81;;;1.01;100.00
23899;BME280;20544;50.018;20.010;2023-02-26T06:35:42;98027.61;;;1.00;100.00
23899;BME280;20544;50.018;20.010;2023-02-26T06:38:59;98027.88;;;0.87;100.00
23899;BME280;20544;50.018;20.010;2023-02-26T06:42:17;98028.72;;;0.88;100.00
23899;BME280;20544;50.018;20.010;2023-02-26T06:45:34;98025.70;;;0.83;100.00
23899;BME280;20544;50.018;20.010;2023-02-26T06:48:50;98034.49;;;0.82;100.00
23899;BME280;20544;50.018;20.010;2023-02-26T06:52:07;98041.63;;;0.79;100.00
23899;BME280;20544;50.018;20.010;2023-02-26T06:55:23;98039.97;;;0.88;100.00
23899;BME280;20544;50.018;20.010;2023-02-26T06:58:41;98041.98;;;1.43;100.00
23899;BME280;20544;50.018;20.010;2023-02-26T07:01:59;98052.46;;;2.37;100.00
23899;BME280;20544;50.018;20.010;2023-02-26T07:05:16;98056.95;;;3.17;100.00
23899;BME280;20544;50.018;20.010;2023-02-26T07:08:34;98063.25;;;3.50;100.00
23899;BME280;20544;50.018;20.010;2023-02-26T07:11:50;98075.53;;;4.62;100.00
23899;BME280;20544;50.018;20.010;2023-02-26T07:15:10;98072.80;;;4.96;100.00
23899;BME280;20544;50.018;20.010;2023-02-26T07:18:27;98078.48;;;5.82;100.00
23899;BME280;20544;50.018;20.010;2023-02-26T07:21:43;98081.69;;;6.18;100.00
23899;BME280;20544;50.018;20.010;2023-02-26T07:24:59;98078.22;;;5.19;100.00
23899;BME280;20544;50.018;20.010;2023-02-26T07:28:16;98082.32;;;4.30;100.00
23899;BME280;20544;50.018;20.010;2023-02-26T07:31:38;98086.36;;;4.08;100.00
23899;BME280;20544;50.018;20.010;2023-02-26T07:34:55;98086.63;;;3.70;100.00
23899;BME280;20544;50.018;20.010;2023-02-26T07:38:12;98092.80;;;3.34;100.00
23899;BME280;20544;50.018;20.010;2023-02-26T07:41:36;98097.75;;;3.19;100.00
23899;BME280;20544;50.018;20.010;2023-02-26T07:45:07;98096.55;;;3.14;100.00
23899;BME280;20544;50.018;20.010;2023-02-26T07:48:26;98117.75;;;3.20;100.00
23899;BME280;20544;50.018;20.010;2023-02-26T07:51:42;98129.05;;;3.21;100.00
23899;BME280;20544;50.018;20.010;2023-02-26T07:55:01;98133.95;;;2.70;100.00
23899;BME280;20544;50.018;20.010;2023-02-26T07:58:17;98135.77;;;2.69;100.00
23899;BME280;20544;50.018;20.010;2023-02-26T08:01:36;98154.95;;;2.60;100.00
23899;BME280;20544;50.018;20.010;2023-02-26T08:04:54;98149.69;;;2.42;100.00
23899;BME280;20544;50.018;20.010;2023-02-26T08:08:10;98150.16;;;2.28;100.00
23899;BME280;20544;50.018;20.010;2023-02-26T08:14:42;98175.72;;;2.06;100.00
23899;BME280;20544;50.018;20.010;2023-02-26T08:17:58;98180.82;;;1.98;100.00
23899;BME280;20544;50.018;20.010;2023-02-26T08:21:14;98181.84;;;1.77;100.00
23899;BME280;20544;50.018;20.010;2023-02-26T08:24:31;98181.56;;;1.60;100.00
23899;BME280;20544;50.018;20.010;2023-02-26T08:31:03;98190.80;;;1.65;100.00
23899;BME280;20544;50.018;20.010;2023-02-26T08:34:21;98192.72;;;1.43;100.00
23899;BME280;20544;50.018;20.010;2023-02-26T08:37:38;98192.17;;;1.49;100.00
23899;BME280;20544;50.018;20.010;2023-02-26T08:40:54;98204.13;;;1.71;100.00
23899;BME280;20544;50.018;20.010;2023-02-26T08:44:12;98205.23;;;1.78;100.00
23899;BME280;20544;50.018;20.010;2023-02-26T08:47:28;98200.94;;;1.97;100.00
23899;BME280;20544;50.018;20.010;2023-02-26T08:50:47;98207.39;;;1.93;100.00
23899;BME280;20544;50.018;20.010;2023-02-26T08:54:04;98208.48;;;2.00;100.00
23899;BME280;20544;50.018;20.010;2023-02-26T08:57:20;98217.95;;;2.21;100.00
23899;BME280;20544;50.018;20.010;2023-02-26T09:00:37;98229.23;;;2.21;100.00
23899;BME280;20544;50.018;20.010;2023-02-26T09:03:53;98233.11;;;2.17;100.00
23899;BME280;20544;50.018;20.010;2023-02-26T09:07:11;98239.84;;;2.20;100.00
23899;BME280;20544;50.018;20.010;2023-02-26T09:10:31;98241.99;;;2.34;100.00
23899;BME280;20544;50.018;20.010;2023-02-26T09:13:48;98243.47;;;2.47;100.00
23899;BME280;20544;50.018;20.010;2023-02-26T09:17:05;98249.13;;;2.52;100.00
23899;BME280;20544;50.018;20.010;2023-02-26T09:20:21;98254.42;;;2.32;100.00
23899;BME280;20544;50.018;20.010;2023-02-26T09:23:38;98273.27;;;2.46;100.00
23899;BME280;20544;50.018;20.010;2023-02-26T09:26:57;98270.64;;;2.46;100.00
23899;BME280;20544;50.018;20.010;2023-02-26T09:30:15;98277.48;;;2.56;100.00
23899;BME280;20544;50.018;20.010;2023-02-26T09:33:32;98284.05;;;2.70;100.00
23899;BME280;20544;50.018;20.010;2023-02-26T09:36:50;98284.59;;;2.74;100.00
23899;BME280;20544;50.018;20.010;2023-02-26T09:45:37;98291.33;;;2.29;100.00
23899;BME280;20544;50.018;20.010;2023-02-26T09:48:59;98289.66;;;2.38;100.00
23899;BME280;20544;50.018;20.010;2023-02-26T09:52:22;98300.44;;;2.25;100.00
23899;BME280;20544;50.018;20.010;2023-02-26T09:55:43;98299.08;;;2.21;100.00
23899;BME280;20544;50.018;20.010;2023-02-26T09:59:01;98295.36;;;2.14;100.00
23899;BME280;20544;50.018;20.010;2023-02-26T10:02:20;98303.36;;;2.12;100.00
23899;BME280;20544;50.018;20.010;2023-02-26T10:05:45;98305.71;;;1.86;100.00
23899;BME280;20544;50.018;20.010;2023-02-26T10:09:15;98307.64;;;1.93;100.00
23899;BME280;20544;50.018;20.010;2023-02-26T10:12:41;98319.05;;;2.02;100.00
23899;BME280;20544;50.018;20.010;2023-02-26T10:16:00;98321.67;;;2.02;100.00
23899;BME280;20544;50.018;20.010;2023-02-26T10:19:24;98324.95;;;2.14;100.00
23899;BME280;20544;50.018;20.010;2023-02-26T10:22:49;98323.88;;;2.07;100.00
23899;BME280;20544;50.018;20.010;2023-02-26T10:26:10;98335.31;;;2.16;100.00
23899;BME280;20544;50.018;20.010;2023-02-26T10:29:33;98333.21;;;2.19;100.00
23899;BME280;20544;50.018;20.010;2023-02-26T10:32:58;98332.80;;;2.24;100.00
23899;BME280;20544;50.018;20.010;2023-02-26T10:36:18;98346.18;;;2.21;100.00
23899;BME280;20544;50.018;20.010;2023-02-26T10:39:42;98339.84;;;2.14;100.00
23899;BME280;20544;50.018;20.010;2023-02-26T10:43:04;98344.23;;;2.23;100.00
23899;BME280;20544;50.018;20.010;2023-02-26T10:46:28;98349.30;;;2.44;100.00
23899;BME280;20544;50.018;20.010;2023-02-26T10:49:51;98349.69;;;2.59;100.00
23899;BME280;20544;50.018;20.010;2023-02-26T10:53:13;98357.60;;;2.97;100.00
23899;BME280;20544;50.018;20.010;2023-02-26T10:56:31;98361.16;;;3.05;100.00
23899;BME280;20544;50.018;20.010;2023-02-26T10:59:48;98366.52;;;3.04;100.00
23899;BME280;20544;50.018;20.010;2023-02-26T11:03:06;98379.20;;;3.08;100.00
23899;BME280;20544;50.018;20.010;2023-02-26T11:06:29;98385.22;;;3.19;100.00
23899;BME280;20544;50.018;20.010;2023-02-26T11:09:47;98383.40;;;3.29;100.00
23899;BME280;20544;50.018;20.010;2023-02-26T11:13:04;98391.41;;;3.55;100.00
23899;BME280;20544;50.018;20.010;2023-02-26T11:16:23;98382.96;;;3.62;100.00
23899;BME280;20544;50.018;20.010;2023-02-26T11:19:44;98383.77;;;3.62;100.00
23899;BME280;20544;50.018;20.010;2023-02-26T11:23:05;98383.16;;;3.50;100.00
23899;BME280;20544;50.018;20.010;2023-02-26T11:26:26;98401.13;;;3.45;100.00
23899;BME280;20544;50.018;20.010;2023-02-26T11:29:48;98411.55;;;3.27;100.00
23899;BME280;20544;50.018;20.010;2023-02-26T11:33:23;98407.78;;;3.02;100.00
23899;BME280;20544;50.018;20.010;2023-02-26T11:36:58;98415.11;;;2.88;100.00
23899;BME280;20544;50.018;20.010;2023-02-26T11:44:04;98434.42;;;2.78;100.00
23899;BME280;20544;50.018;20.010;2023-02-26T11:47:29;98430.45;;;2.44;100.00
23899;BME280;20544;50.018;20.010;2023-02-26T11:50:53;98426.73;;;2.47;100.00
23899;BME280;20544;50.018;20.010;2023-02-26T11:54:24;98431.30;;;2.45;100.00
23899;BME280;20544;50.018;20.010;2023-02-26T12:01:00;98439.70;;;2.38;100.00
23899;BME280;20544;50.018;20.010;2023-02-26T12:04:24;98437.64;;;2.32;100.00
23899;BME280;20544;50.018;20.010;2023-02-26T12:07:40;98441.50;;;2.28;100.00
23899;BME280;20544;50.018;20.010;2023-02-26T12:11:05;98445.20;;;2.35;100.00
23899;BME280;20544;50.018;20.010;2023-02-26T12:14:36;98445.90;;;2.37;100.00
23899;BME280;20544;50.018;20.010;2023-02-26T12:22:02;98443.98;;;2.39;100.00
23899;BME280;20544;50.018;20.010;2023-02-26T12:35:23;98482.00;;;2.43;100.00
23899;BME280;20544;50.018;20.010;2023-02-26T12:38:48;98488.62;;;2.67;100.00
23899;BME280;20544;50.018;20.010;2023-02-26T12:45:31;98492.20;;;2.66;100.00
23899;BME280;20544;50.018;20.010;2023-02-26T12:49:07;98500.48;;;2.52;100.00
23899;BME280;20544;50.018;20.010;2023-02-26T12:52:46;98502.41;;;2.50;100.00
23899;BME280;20544;50.018;20.010;2023-02-26T12:59:55;98517.28;;;2.39;100.00
23899;BME280;20544;50.018;20.010;2023-02-26T13:03:45;98519.02;;;2.19;100.00
23899;BME280;20544;50.018;20.010;2023-02-26T13:07:21;98535.39;;;2.12;100.00
23899;BME280;20544;50.018;20.010;2023-02-26T13:11:19;98539.48;;;1.94;100.00
23899;BME280;20544;50.018;20.010;2023-02-26T13:14:49;98548.86;;;1.97;100.00
23899;BME280;20544;50.018;20.010;2023-02-26T13:18:13;98554.66;;;2.01;100.00
23899;BME280;20544;50.018;20.010;2023-02-26T13:21:34;98560.14;;;1.98;100.00
23899;BME280;20544;50.018;20.010;2023-02-26T13:24:55;98554.19;;;1.86;100.00
23899;BME280;20544;50.018;20.010;2023-02-26T13:28:18;98562.51;;;2.01;100.00
23899;BME280;20544;50.018;20.010;2023-02-26T13:31:40;98573.39;;;2.06;100.00
23899;BME280;20544;50.018;20.010;2023-02-26T13:35:03;98575.11;;;1.86;100.00
23899;BME280;20544;50.018;20.010;2023-02-26T13:38:27;98569.84;;;1.76;100.00
23899;BME280;20544;50.018;20.010;2023-02-26T13:41:48;98589.34;;;1.72;100.00
23899;BME280;20544;50.018;20.010;2023-02-26T13:45:20;98588.47;;;1.61;100.00
23899;BME280;20544;50.018;20.010;2023-02-26T13:48:50;98595.06;;;1.56;100.00
23899;BME280;20544;50.018;20.010;2023-02-26T13:52:22;98591.93;;;1.62;100.00
23899;BME280;20544;50.018;20.010;2023-02-26T13:55:44;98590.88;;;1.53;100.00
23899;BME280;20544;50.018;20.010;2023-02-26T13:59:22;98604.09;;;1.52;100.00
23899;BME280;20544;50.018;20.010;2023-02-26T14:02:52;98606.20;;;1.58;100.00
23899;BME280;20544;50.018;20.010;2023-02-26T14:10:12;98613.46;;;1.54;100.00
23899;BME280;20544;50.018;20.010;2023-02-26T14:13:35;98622.80;;;1.47;100.00
23899;BME280;20544;50.018;20.010;2023-02-26T14:20:45;98633.80;;;1.51;100.00
23899;BME280;20544;50.018;20.010;2023-02-26T14:24:06;98626.88;;;1.40;100.00
23899;BME280;20544;50.018;20.010;2023-02-26T14:27:35;98627.82;;;1.39;100.00
23899;BME280;20544;50.018;20.010;2023-02-26T14:31:04;98627.52;;;1.32;100.00
23899;BME280;20544;50.018;20.010;2023-02-26T14:34:19;98632.47;;;1.35;100.00
23899;BME280;20544;50.018;20.010;2023-02-26T14:37:37;98638.64;;;1.34;100.00
23899;BME280;20544;50.018;20.010;2023-02-26T14:40:58;98634.00;;;1.38;100.00
23899;BME280;20544;50.018;20.010;2023-02-26T14:44:18;98636.98;;;1.33;100.00
23899;BME280;20544;50.018;20.010;2023-02-26T14:47:37;98635.45;;;1.31;100.00
23899;BME280;20544;50.018;20.010;2023-02-26T14:50:56;98627.45;;;1.43;100.00
23899;BME280;20544;50.018;20.010;2023-02-26T14:54:22;98632.98;;;1.50;100.00
23899;BME280;20544;50.018;20.010;2023-02-26T15:01:06;98652.61;;;1.44;100.00
23899;BME280;20544;50.018;20.010;2023-02-26T15:04:45;98658.17;;;1.51;100.00
23899;BME280;20544;50.018;20.010;2023-02-26T15:08:32;98665.67;;;1.44;100.00
23899;BME280;20544;50.018;20.010;2023-02-26T15:12:04;98670.67;;;1.48;100.00
23899;BME280;20544;50.018;20.010;2023-02-26T15:17:14;98668.13;;;1.57;100.00
23899;BME280;20544;50.018;20.010;2023-02-26T15:20:39;98682.58;;;1.40;100.00
23899;BME280;20544;50.018;20.010;2023-02-26T15:23:59;98695.78;;;1.39;100.00
23899;BME280;20544;50.018;20.010;2023-02-26T15:32:56;98706.95;;;1.41;100.00
23899;BME280;20544;50.018;20.010;2023-02-26T15:36:17;98705.97;;;1.42;100.00
23899;BME280;20544;50.018;20.010;2023-02-26T15:39:35;98705.02;;;1.43;100.00
23899;BME280;20544;50.018;20.010;2023-02-26T15:46:11;98695.91;;;1.37;100.00
23899;BME280;20544;50.018;20.010;2023-02-26T15:49:29;98711.95;;;1.33;100.00
23899;BME280;20544;50.018;20.010;2023-02-26T15:52:52;98732.73;;;1.34;100.00
23899;BME280;20544;50.018;20.010;2023-02-26T15:56:12;98745.22;;;1.31;100.00
23899;BME280;20544;50.018;20.010;2023-02-26T16:02:47;98756.06;;;1.26;100.00
23899;BME280;20544;50.018;20.010;2023-02-26T16:06:08;98762.72;;;1.19;100.00
23899;BME280;20544;50.018;20.010;2023-02-26T16:09:33;98761.44;;;1.02;100.00
23899;BME280;20544;50.018;20.010;2023-02-26T16:16:21;98778.66;;;1.04;100.00
23899;BME280;20544;50.018;20.010;2023-02-26T16:19:42;98777.83;;;1.04;100.00
23899;BME280;20544;50.018;20.010;2023-02-26T16:23:04;98785.77;;;1.02;100.00
23899;BME280;20544;50.018;20.010;2023-02-26T16:26:32;98792.91;;;1.00;100.00
23899;BME280;20544;50.018;20.010;2023-02-26T16:29:48;98802.42;;;1.01;100.00
23899;BME280;20544;50.018;20.010;2023-02-26T16:33:08;98806.33;;;0.95;100.00
23899;BME280;20544;50.018;20.010;2023-02-26T16:36:29;98812.75;;;0.91;100.00
23899;BME280;20544;50.018;20.010;2023-02-26T16:39:50;98823.07;;;0.93;100.00
23899;BME280;20544;50.018;20.010;2023-02-26T16:47:06;98828.52;;;0.78;100.00
23899;BME280;20544;50.018;20.010;2023-02-26T16:50:26;98836.00;;;0.83;100.00
23899;BME280;20544;50.018;20.010;2023-02-26T16:53:45;98841.09;;;0.73;100.00
23899;BME280;20544;50.018;20.010;2023-02-26T16:57:05;98850.38;;;0.77;100.00
23899;BME280;20544;50.018;20.010;2023-02-26T17:00:26;98859.52;;;0.83;100.00
23899;BME280;20544;50.018;20.010;2023-02-26T17:03:56;98864.72;;;0.72;100.00
23899;BME280;20544;50.018;20.010;2023-02-26T17:07:36;98874.95;;;0.75;100.00
23899;BME280;20544;50.018;20.010;2023-02-26T17:11:32;98874.56;;;0.68;100.00
23899;BME280;20544;50.018;20.010;2023-02-26T17:15:11;98863.52;;;0.64;100.00
23899;BME280;20544;50.018;20.010;2023-02-26T17:18:30;98876.11;;;0.71;100.00
23899;BME280;20544;50.018;20.010;2023-02-26T17:21:49;98870.42;;;0.77;100.00
23899;BME280;20544;50.018;20.010;2023-02-26T17:25:26;98876.23;;;0.69;100.00
23899;BME280;20544;50.018;20.010;2023-02-26T17:29:05;98876.72;;;0.74;100.00
23899;BME280;20544;50.018;20.010;2023-02-26T17:32:24;98895.12;;;0.73;100.00
23899;BME280;20544;50.018;20.010;2023-02-26T17:35:59;98893.19;;;0.63;100.00
23899;BME280;20544;50.018;20.010;2023-02-26T17:39:26;98906.81;;;0.56;100.00
23899;BME280;20544;50.018;20.010;2023-02-26T17:42:50;98908.73;;;0.54;100.00
23899;BME280;20544;50.018;20.010;2023-02-26T17:46:12;98913.59;;;0.58;100.00
23899;BME280;20544;50.018;20.010;2023-02-26T17:49:30;98904.20;;;0.56;100.00
23899;BME280;20544;50.018;20.010;2023-02-26T17:52:48;98900.07;;;0.64;100.00
23899;BME280;20544;50.018;20.010;2023-02-26T17:56:08;98908.17;;;0.73;100.00
23899;BME280;20544;50.018;20.010;2023-02-26T18:02:46;98911.86;;;0.82;100.00
23899;BME280;20544;50.018;20.010;2023-02-26T18:06:11;98920.42;;;0.84;100.00
23899;BME280;20544;50.018;20.010;2023-02-26T18:09:31;98912.47;;;0.85;100.00
23899;BME280;20544;50.018;20.010;2023-02-26T18:12:49;98906.91;;;0.90;100.00
23899;BME280;20544;50.018;20.010;2023-02-26T18:19:22;98916.75;;;0.86;100.00
23899;BME280;20544;50.018;20.010;2023-02-26T18:22:49;98916.84;;;0.85;100.00
23899;BME280;20544;50.018;20.010;2023-02-26T18:26:11;98903.27;;;0.57;100.00
23899;BME280;20544;50.018;20.010;2023-02-26T18:32:48;98894.22;;;0.50;100.00
23899;BME280;20544;50.018;20.010;2023-02-26T18:36:08;98908.00;;;0.52;100.00
23899;BME280;20544;50.018;20.010;2023-02-26T18:39:27;98912.43;;;0.62;100.00
23899;BME280;20544;50.018;20.010;2023-02-26T18:42:45;98922.60;;;0.54;100.00
23899;BME280;20544;50.018;20.010;2023-02-26T18:46:03;98931.01;;;0.46;100.00
23899;BME280;20544;50.018;20.010;2023-02-26T18:49:24;98943.57;;;0.41;100.00
23899;BME280;20544;50.018;20.010;2023-02-26T18:52:42;98950.79;;;0.38;100.00
23899;BME280;20544;50.018;20.010;2023-02-26T18:56:02;98959.92;;;0.43;100.00
23899;BME280;20544;50.018;20.010;2023-02-26T18:59:22;98963.84;;;0.38;100.00
23899;BME280;20544;50.018;20.010;2023-02-26T19:02:46;98971.67;;;0.38;100.00
23899;BME280;20544;50.018;20.010;2023-02-26T19:06:07;98977.95;;;0.35;100.00
23899;BME280;20544;50.018;20.010;2023-02-26T19:09:26;98983.25;;;0.34;100.00
23899;BME280;20544;50.018;20.010;2023-02-26T19:12:43;98989.70;;;0.41;100.00
23899;BME280;20544;50.018;20.010;2023-02-26T19:16:06;98981.30;;;0.48;100.00
23899;BME280;20544;50.018;20.010;2023-02-26T19:19:25;98966.38;;;0.51;100.00
23899;BME280;20544;50.018;20.010;2023-02-26T19:22:44;98972.69;;;0.59;100.00
23899;BME280;20544;50.018;20.010;2023-02-26T19:26:04;98966.89;;;0.67;100.00
23899;BME280;20544;50.018;20.010;2023-02-26T19:32:45;98990.47;;;0.54;100.00
23899;BME280;20544;50.018;20.010;2023-02-26T19:36:08;99001.20;;;0.62;100.00